sensor_id;sensor_type;location;lat;lon;timestamp;P1;durP1;ratioP1;P2;durP2;ratioP2
1715;SDS011;855;48.824;9.220;2024-03-23T00:52:17;17.80;;;7.47;;
1715;SDS011;855;48.824;9.220;2024-03-23T00:54:45;12.40;;;6.50;;
1715;SDS011;855;48.824;9.220;2024-03-23T00:57:10;17.83;;;6.53;;
1715;SDS011;855;48.824;9.220;2024-03-23T00:59:39;10.10;;;5.80;;
1715;SDS011;855;48.824;9.220;2024-03-23T01:02:04;13.87;;;6.70;;
1715;SDS011;855;48.824;9.220;2024-03-23T01:04:31;12.27;;;6.13;;
1715;SDS011;855;48.824;9.220;2024-03-23T01:06:57;17.77;;;7.53;;
1715;SDS011;855;48.824;9.220;2024-03-23T01:09:24;21.50;;;7.67;;
1715;SDS011;855;48.824;9.220;2024-03-23T01:11:50;16.10;;;7.50;;
1715;SDS011;855;48.824;9.220;2024-03-23T01:14:17;22.37;;;7.57;;
1715;SDS011;855;48.824;9.220;2024-03-23T01:16:44;16.33;;;7.90;;
1715;SDS011;855;48.824;9.220;2024-03-23T01:19:10;13.80;;;6.83;;
1715;SDS011;855;48.824;9.220;2024-03-23T01:21:36;18.93;;;7.00;;
1715;SDS011;855;48.824;9.220;2024-03-23T01:24:03;12.50;;;6.90;;
1715;SDS011;855;48.824;9.220;2024-03-23T01:26:29;20.97;;;7.70;;
1715;SDS011;855;48.824;9.220;2024-03-23T01:28:56;9.40;;;5.60;;
1715;SDS011;855;48.824;9.220;2024-03-23T01:31:22;14.90;;;7.40;;
1715;SDS011;855;48.824;9.220;2024-03-23T01:33:50;11.27;;;6.13;;
1715;SDS011;855;48.824;9.220;2024-03-23T01:36:16;20.93;;;7.13;;
1715;SDS011;855;48.824;9.220;2024-03-23T01:38:43;15.83;;;9.70;;
1715;SDS011;855;48.824;9.220;2024-03-23T01:41:09;16.77;;;7.27;;
1715;SDS011;855;48.824;9.220;2024-03-23T01:43:36;11.20;;;6.83;;
1715;SDS011;855;48.824;9.220;2024-03-23T01:46:01;19.60;;;7.30;;
1715;SDS011;855;48.824;9.220;2024-03-23T01:48:28;14.20;;;6.47;;
1715;SDS011;855;48.824;9.220;2024-03-23T01:50:56;13.73;;;7.57;;
1715;SDS011;855;48.824;9.220;2024-03-23T01:53:23;13.03;;;6.87;;
1715;SDS011;855;48.824;9.220;2024-03-23T01:55:50;17.10;;;8.30;;
1715;SDS011;855;48.824;9.220;2024-03-23T01:58:17;11.87;;;5.93;;
1715;SDS011;855;48.824;9.220;2024-03-23T02:00:43;12.23;;;6.00;;
1715;SDS011;855;48.824;9.220;2024-03-23T02:03:22;16.60;;;6.77;;
1715;SDS011;855;48.824;9.220;2024-03-23T02:05:49;10.60;;;6.73;;
1715;SDS011;855;48.824;9.220;2024-03-23T02:08:18;10.67;;;6.60;;
1715;SDS011;855;48.824;9.220;2024-03-23T02:10:45;15.20;;;6.23;;
1715;SDS011;855;48.824;9.220;2024-03-23T02:13:13;14.33;;;5.80;;
1715;SDS011;855;48.824;9.220;2024-03-23T02:15:39;14.73;;;5.80;;
1715;SDS011;855;48.824;9.220;2024-03-23T02:18:06;11.83;;;5.50;;
1715;SDS011;855;48.824;9.220;2024-03-23T02:20:33;9.07;;;5.47;;
1715;SDS011;855;48.824;9.220;2024-03-23T02:23:01;6.70;;;4.13;;
1715;SDS011;855;48.824;9.220;2024-03-23T02:25:27;9.90;;;5.27;;
1715;SDS011;855;48.824;9.220;2024-03-23T02:27:53;8.87;;;5.10;;
1715;SDS011;855;48.824;9.220;2024-03-23T02:30:20;8.50;;;4.40;;
1715;SDS011;855;48.824;9.220;2024-03-23T02:32:47;12.10;;;4.50;;
1715;SDS011;855;48.824;9.220;2024-03-23T02:35:13;11.50;;;4.50;;
1715;SDS011;855;48.824;9.220;2024-03-23T02:37:40;4.70;;;3.40;;
1715;SDS011;855;48.824;9.220;2024-03-23T02:40:07;13.40;;;3.60;;
1715;SDS011;855;48.824;9.220;2024-03-23T02:42:34;5.73;;;2.90;;
1715;SDS011;855;48.824;9.220;2024-03-23T02:45:00;7.70;;;2.90;;
1715;SDS011;855;48.824;9.220;2024-03-23T02:47:29;3.13;;;2.63;;
1715;SDS011;855;48.824;9.220;2024-03-23T02:49:55;4.77;;;2.53;;
1715;SDS011;855;48.824;9.220;2024-03-23T02:52:22;4.17;;;2.83;;
1715;SDS011;855;48.824;9.220;2024-03-23T02:54:48;2.57;;;2.30;;
1715;SDS011;855;48.824;9.220;2024-03-23T02:57:16;6.77;;;3.27;;
1715;SDS011;855;48.824;9.220;2024-03-23T02:59:42;7.60;;;3.00;;
1715;SDS011;855;48.824;9.220;2024-03-23T03:02:09;5.83;;;2.70;;
1715;SDS011;855;48.824;9.220;2024-03-23T03:04:34;3.43;;;2.53;;
1715;SDS011;855;48.824;9.220;2024-03-23T03:07:01;3.50;;;2.37;;
1715;SDS011;855;48.824;9.220;2024-03-23T03:09:27;4.00;;;2.33;;
1715;SDS011;855;48.824;9.220;2024-03-23T03:11:54;4.00;;;2.10;;
1715;SDS011;855;48.824;9.220;2024-03-23T03:14:21;3.53;;;2.40;;
1715;SDS011;855;48.824;9.220;2024-03-23T03:16:48;3.17;;;1.93;;
1715;SDS011;855;48.824;9.220;2024-03-23T03:19:14;2.57;;;2.37;;
1715;SDS011;855;48.824;9.220;2024-03-23T03:21:41;5.33;;;2.33;;
1715;SDS011;855;48.824;9.220;2024-03-23T03:24:07;3.43;;;2.03;;
1715;SDS011;855;48.824;9.220;2024-03-23T03:26:34;4.90;;;2.50;;
1715;SDS011;855;48.824;9.220;2024-03-23T03:29:00;3.33;;;2.20;;
1715;SDS011;855;48.824;9.220;2024-03-23T03:31:28;2.50;;;2.07;;
1715;SDS011;855;48.824;9.220;2024-03-23T03:33:54;5.93;;;2.60;;
1715;SDS011;855;48.824;9.220;2024-03-23T03:36:20;9.57;;;2.93;;
1715;SDS011;855;48.824;9.220;2024-03-23T03:38:46;2.73;;;2.30;;
1715;SDS011;855;48.824;9.220;2024-03-23T03:41:13;5.47;;;3.00;;
1715;SDS011;855;48.824;9.220;2024-03-23T03:43:39;4.83;;;2.60;;
1715;SDS011;855;48.824;9.220;2024-03-23T03:46:06;10.03;;;2.53;;
1715;SDS011;855;48.824;9.220;2024-03-23T03:48:34;5.37;;;2.47;;
1715;SDS011;855;48.824;9.220;2024-03-23T03:51:01;2.80;;;1.90;;
1715;SDS011;855;48.824;9.220;2024-03-23T03:53:27;2.90;;;2.00;;
1715;SDS011;855;48.824;9.220;2024-03-23T03:55:54;4.83;;;2.80;;
1715;SDS011;855;48.824;9.220;2024-03-23T03:58:19;4.37;;;2.37;;
1715;SDS011;855;48.824;9.220;2024-03-23T04:00:46;4.00;;;2.50;;
1715;SDS011;855;48.824;9.220;2024-03-23T04:03:12;2.47;;;1.83;;
1715;SDS011;855;48.824;9.220;2024-03-23T04:05:40;4.23;;;2.03;;
1715;SDS011;855;48.824;9.220;2024-03-23T04:08:07;13.57;;;2.40;;
1715;SDS011;855;48.824;9.220;2024-03-23T04:10:33;7.23;;;2.00;;
1715;SDS011;855;48.824;9.220;2024-03-23T04:12:59;4.33;;;2.00;;
1715;SDS011;855;48.824;9.220;2024-03-23T04:15:29;5.87;;;2.87;;
1715;SDS011;855;48.824;9.220;2024-03-23T04:17:55;2.87;;;1.90;;
1715;SDS011;855;48.824;9.220;2024-03-23T04:20:22;3.57;;;1.90;;
1715;SDS011;855;48.824;9.220;2024-03-23T04:22:49;2.63;;;1.90;;
1715;SDS011;855;48.824;9.220;2024-03-23T04:25:15;2.57;;;2.27;;
1715;SDS011;855;48.824;9.220;2024-03-23T04:27:44;5.33;;;2.57;;
1715;SDS011;855;48.824;9.220;2024-03-23T04:30:12;12.50;;;2.50;;
1715;SDS011;855;48.824;9.220;2024-03-23T04:32:38;4.67;;;3.03;;
1715;SDS011;855;48.824;9.220;2024-03-23T04:35:05;7.03;;;2.70;;
1715;SDS011;855;48.824;9.220;2024-03-23T04:37:31;6.17;;;2.93;;
1715;SDS011;855;48.824;9.220;2024-03-23T04:40:00;3.90;;;3.30;;
1715;SDS011;855;48.824;9.220;2024-03-23T04:42:28;7.93;;;3.10;;
1715;SDS011;855;48.824;9.220;2024-03-23T04:44:55;5.20;;;2.93;;
1715;SDS011;855;48.824;9.220;2024-03-23T04:47:22;7.03;;;3.30;;
1715;SDS011;855;48.824;9.220;2024-03-23T04:49:49;4.40;;;3.27;;
1715;SDS011;855;48.824;9.220;2024-03-23T04:52:15;15.20;;;4.20;;
1715;SDS011;855;48.824;9.220;2024-03-23T04:54:42;6.20;;;3.73;;
1715;SDS011;855;48.824;9.220;2024-03-23T04:57:11;8.60;;;3.47;;
1715;SDS011;855;48.824;9.220;2024-03-23T04:59:39;7.07;;;3.97;;
1715;SDS011;855;48.824;9.220;2024-03-23T05:02:04;10.87;;;5.27;;
1715;SDS011;855;48.824;9.220;2024-03-23T05:04:31;13.43;;;5.80;;
1715;SDS011;855;48.824;9.220;2024-03-23T05:06:57;20.27;;;6.97;;
1715;SDS011;855;48.824;9.220;2024-03-23T05:09:24;24.63;;;8.60;;
1715;SDS011;855;48.824;9.220;2024-03-23T05:11:55;36.83;;;9.90;;
1715;SDS011;855;48.824;9.220;2024-03-23T05:14:23;22.00;;;7.17;;
1715;SDS011;855;48.824;9.220;2024-03-23T05:16:49;20.43;;;8.30;;
1715;SDS011;855;48.824;9.220;2024-03-23T05:19:15;20.70;;;8.30;;
1715;SDS011;855;48.824;9.220;2024-03-23T05:21:41;17.17;;;7.87;;
1715;SDS011;855;48.824;9.220;2024-03-23T05:24:08;19.77;;;8.33;;
1715;SDS011;855;48.824;9.220;2024-03-23T05:26:34;21.20;;;9.03;;
1715;SDS011;855;48.824;9.220;2024-03-23T05:29:01;23.80;;;9.83;;
1715;SDS011;855;48.824;9.220;2024-03-23T05:31:29;23.73;;;9.83;;
1715;SDS011;855;48.824;9.220;2024-03-23T05:33:57;19.70;;;8.27;;
1715;SDS011;855;48.824;9.220;2024-03-23T05:36:23;23.03;;;10.27;;
1715;SDS011;855;48.824;9.220;2024-03-23T05:38:50;26.13;;;11.03;;
1715;SDS011;855;48.824;9.220;2024-03-23T05:41:16;21.00;;;8.70;;
1715;SDS011;855;48.824;9.220;2024-03-23T05:43:42;22.57;;;8.60;;
1715;SDS011;855;48.824;9.220;2024-03-23T05:46:09;34.00;;;10.17;;
1715;SDS011;855;48.824;9.220;2024-03-23T05:48:37;24.43;;;8.00;;
1715;SDS011;855;48.824;9.220;2024-03-23T05:51:03;22.53;;;8.53;;
1715;SDS011;855;48.824;9.220;2024-03-23T05:53:30;17.00;;;7.80;;
1715;SDS011;855;48.824;9.220;2024-03-23T05:56:00;16.43;;;7.37;;
1715;SDS011;855;48.824;9.220;2024-03-23T05:58:28;21.30;;;7.60;;
1715;SDS011;855;48.824;9.220;2024-03-23T06:00:56;21.30;;;7.20;;
1715;SDS011;855;48.824;9.220;2024-03-23T06:03:24;11.33;;;6.97;;
1715;SDS011;855;48.824;9.220;2024-03-23T06:05:51;14.77;;;5.50;;
1715;SDS011;855;48.824;9.220;2024-03-23T06:08:19;6.17;;;3.13;;
1715;SDS011;855;48.824;9.220;2024-03-23T06:10:44;10.53;;;2.53;;
1715;SDS011;855;48.824;9.220;2024-03-23T06:13:12;4.40;;;2.30;;
1715;SDS011;855;48.824;9.220;2024-03-23T06:15:37;4.27;;;2.80;;
1715;SDS011;855;48.824;9.220;2024-03-23T06:18:04;3.90;;;2.33;;
1715;SDS011;855;48.824;9.220;2024-03-23T06:20:32;3.77;;;2.10;;
1715;SDS011;855;48.824;9.220;2024-03-23T06:23:01;7.73;;;2.87;;
1715;SDS011;855;48.824;9.220;2024-03-23T06:25:27;5.23;;;2.73;;
1715;SDS011;855;48.824;9.220;2024-03-23T06:27:53;2.40;;;1.53;;
1715;SDS011;855;48.824;9.220;2024-03-23T06:30:19;3.83;;;2.20;;
1715;SDS011;855;48.824;9.220;2024-03-23T06:32:46;3.70;;;1.93;;
1715;SDS011;855;48.824;9.220;2024-03-23T06:35:12;3.90;;;1.90;;
1715;SDS011;855;48.824;9.220;2024-03-23T06:37:39;2.80;;;1.90;;
1715;SDS011;855;48.824;9.220;2024-03-23T06:40:08;4.00;;;1.80;;
1715;SDS011;855;48.824;9.220;2024-03-23T06:42:36;3.07;;;2.10;;
1715;SDS011;855;48.824;9.220;2024-03-23T06:45:02;1.30;;;1.27;;
1715;SDS011;855;48.824;9.220;2024-03-23T06:47:29;3.93;;;1.30;;
1715;SDS011;855;48.824;9.220;2024-03-23T06:49:55;1.10;;;1.00;;
1715;SDS011;855;48.824;9.220;2024-03-23T06:52:22;2.40;;;0.90;;
1715;SDS011;855;48.824;9.220;2024-03-23T06:54:48;2.40;;;1.30;;
1715;SDS011;855;48.824;9.220;2024-03-23T06:57:16;1.33;;;1.27;;
1715;SDS011;855;48.824;9.220;2024-03-23T06:59:42;2.53;;;1.20;;
1715;SDS011;855;48.824;9.220;2024-03-23T07:02:09;2.80;;;1.23;;
1715;SDS011;855;48.824;9.220;2024-03-23T07:04:35;1.43;;;0.90;;
1715;SDS011;855;48.824;9.220;2024-03-23T07:07:02;1.40;;;0.80;;
1715;SDS011;855;48.824;9.220;2024-03-23T07:09:27;4.10;;;0.90;;
1715;SDS011;855;48.824;9.220;2024-03-23T07:11:54;1.30;;;0.70;;
1715;SDS011;855;48.824;9.220;2024-03-23T07:14:22;1.37;;;0.87;;
1715;SDS011;855;48.824;9.220;2024-03-23T07:16:50;1.80;;;0.90;;
1715;SDS011;855;48.824;9.220;2024-03-23T07:19:16;1.20;;;0.90;;
1715;SDS011;855;48.824;9.220;2024-03-23T07:21:43;2.80;;;0.53;;
1715;SDS011;855;48.824;9.220;2024-03-23T07:24:09;0.73;;;0.70;;
1715;SDS011;855;48.824;9.220;2024-03-23T07:26:36;1.87;;;0.80;;
1715;SDS011;855;48.824;9.220;2024-03-23T07:29:03;0.80;;;0.70;;
1715;SDS011;855;48.824;9.220;2024-03-23T07:31:31;0.50;;;0.50;;
1715;SDS011;855;48.824;9.220;2024-03-23T07:33:57;8.10;;;1.03;;
1715;SDS011;855;48.824;9.220;2024-03-23T07:36:24;1.10;;;1.00;;
1715;SDS011;855;48.824;9.220;2024-03-23T07:38:50;1.00;;;0.83;;
1715;SDS011;855;48.824;9.220;2024-03-23T07:41:17;0.87;;;0.80;;
1715;SDS011;855;48.824;9.220;2024-03-23T07:43:44;0.73;;;0.63;;
1715;SDS011;855;48.824;9.220;2024-03-23T07:46:11;1.27;;;0.90;;
1715;SDS011;855;48.824;9.220;2024-03-23T07:48:39;4.10;;;0.70;;
1715;SDS011;855;48.824;9.220;2024-03-23T07:51:08;0.50;;;0.50;;
1715;SDS011;855;48.824;9.220;2024-03-23T07:53:35;0.70;;;0.60;;
1715;SDS011;855;48.824;9.220;2024-03-23T07:56:05;0.70;;;0.60;;
1715;SDS011;855;48.824;9.220;2024-03-23T07:58:31;0.60;;;0.50;;
1715;SDS011;855;48.824;9.220;2024-03-23T08:01:03;1.27;;;0.70;;
1715;SDS011;855;48.824;9.220;2024-03-23T08:03:30;0.87;;;0.70;;
1715;SDS011;855;48.824;9.220;2024-03-23T08:05:58;0.73;;;0.70;;
1715;SDS011;855;48.824;9.220;2024-03-23T08:08:32;0.70;;;0.70;;
1715;SDS011;855;48.824;9.220;2024-03-23T08:10:59;1.33;;;1.13;;
1715;SDS011;855;48.824;9.220;2024-03-23T08:13:24;0.60;;;0.60;;
1715;SDS011;855;48.824;9.220;2024-03-23T08:15:55;0.67;;;0.50;;
1715;SDS011;855;48.824;9.220;2024-03-23T08:18:21;0.70;;;0.60;;
1715;SDS011;855;48.824;9.220;2024-03-23T08:20:54;0.80;;;0.70;;
1715;SDS011;855;48.824;9.220;2024-03-23T08:23:22;0.97;;;0.80;;
1715;SDS011;855;48.824;9.220;2024-03-23T08:25:49;0.80;;;0.70;;
1715;SDS011;855;48.824;9.220;2024-03-23T08:28:15;0.67;;;0.57;;
1715;SDS011;855;48.824;9.220;2024-03-23T08:30:42;1.03;;;0.90;;
1715;SDS011;855;48.824;9.220;2024-03-23T08:33:07;0.97;;;0.73;;
1715;SDS011;855;48.824;9.220;2024-03-23T08:35:34;1.63;;;0.57;;
1715;SDS011;855;48.824;9.220;2024-03-23T08:38:00;2.23;;;0.70;;
1715;SDS011;855;48.824;9.220;2024-03-23T08:40:28;1.07;;;0.57;;
1715;SDS011;855;48.824;9.220;2024-03-23T08:42:54;1.33;;;1.17;;
1715;SDS011;855;48.824;9.220;2024-03-23T08:45:21;0.50;;;0.50;;
1715;SDS011;855;48.824;9.220;2024-03-23T08:47:46;1.73;;;0.83;;
1715;SDS011;855;48.824;9.220;2024-03-23T08:50:13;0.90;;;0.70;;
1715;SDS011;855;48.824;9.220;2024-03-23T08:52:39;1.13;;;0.90;;
1715;SDS011;855;48.824;9.220;2024-03-23T08:55:06;33.57;;;1.90;;
1715;SDS011;855;48.824;9.220;2024-03-23T08:57:35;6.80;;;1.20;;
1715;SDS011;855;48.824;9.220;2024-03-23T09:00:02;3.27;;;1.53;;
1715;SDS011;855;48.824;9.220;2024-03-23T09:02:31;8.70;;;1.70;;
1715;SDS011;855;48.824;9.220;2024-03-23T09:04:59;4.77;;;1.33;;
1715;SDS011;855;48.824;9.220;2024-03-23T09:07:29;12.33;;;1.40;;
1715;SDS011;855;48.824;9.220;2024-03-23T09:09:56;7.17;;;1.17;;
1715;SDS011;855;48.824;9.220;2024-03-23T09:12:22;5.97;;;1.57;;
1715;SDS011;855;48.824;9.220;2024-03-23T09:14:50;3.83;;;1.63;;
1715;SDS011;855;48.824;9.220;2024-03-23T09:17:17;2.83;;;1.93;;
1715;SDS011;855;48.824;9.220;2024-03-23T09:19:44;2.60;;;1.50;;
1715;SDS011;855;48.824;9.220;2024-03-23T09:22:10;6.53;;;2.30;;
1715;SDS011;855;48.824;9.220;2024-03-23T09:24:38;8.83;;;1.47;;
1715;SDS011;855;48.824;9.220;2024-03-23T09:27:04;3.90;;;2.07;;
1715;SDS011;855;48.824;9.220;2024-03-23T09:29:31;9.10;;;1.60;;
1715;SDS011;855;48.824;9.220;2024-03-23T09:31:58;5.03;;;1.93;;
1715;SDS011;855;48.824;9.220;2024-03-23T09:34:25;15.13;;;2.47;;
1715;SDS011;855;48.824;9.220;2024-03-23T09:36:51;6.30;;;2.50;;
1715;SDS011;855;48.824;9.220;2024-03-23T09:39:18;4.00;;;1.97;;
1715;SDS011;855;48.824;9.220;2024-03-23T09:41:44;6.80;;;2.13;;
1715;SDS011;855;48.824;9.220;2024-03-23T09:44:11;4.23;;;2.10;;
1715;SDS011;855;48.824;9.220;2024-03-23T09:46:37;5.27;;;2.53;;
1715;SDS011;855;48.824;9.220;2024-03-23T09:49:06;8.07;;;2.07;;
1715;SDS011;855;48.824;9.220;2024-03-23T09:51:34;6.60;;;2.33;;
1715;SDS011;855;48.824;9.220;2024-03-23T09:54:02;4.83;;;2.40;;
1715;SDS011;855;48.824;9.220;2024-03-23T09:56:28;5.30;;;2.03;;
1715;SDS011;855;48.824;9.220;2024-03-23T09:58:59;2.40;;;1.97;;
1715;SDS011;855;48.824;9.220;2024-03-23T10:01:26;7.90;;;2.50;;
1715;SDS011;855;48.824;9.220;2024-03-23T10:03:53;3.57;;;2.00;;
1715;SDS011;855;48.824;9.220;2024-03-23T10:06:22;5.10;;;1.97;;
1715;SDS011;855;48.824;9.220;2024-03-23T10:08:51;3.77;;;2.17;;
1715;SDS011;855;48.824;9.220;2024-03-23T10:11:18;7.10;;;2.47;;
1715;SDS011;855;48.824;9.220;2024-03-23T10:13:46;5.37;;;2.80;;
1715;SDS011;855;48.824;9.220;2024-03-23T10:16:20;7.07;;;2.13;;
1715;SDS011;855;48.824;9.220;2024-03-23T10:18:48;3.20;;;2.27;;
1715;SDS011;855;48.824;9.220;2024-03-23T10:21:14;13.60;;;2.50;;
1715;SDS011;855;48.824;9.220;2024-03-23T10:23:44;9.47;;;3.53;;
1715;SDS011;855;48.824;9.220;2024-03-23T10:26:16;7.50;;;4.00;;
1715;SDS011;855;48.824;9.220;2024-03-23T10:28:55;7.90;;;2.10;;
1715;SDS011;855;48.824;9.220;2024-03-23T10:31:24;6.37;;;2.10;;
1715;SDS011;855;48.824;9.220;2024-03-23T10:33:51;3.20;;;2.47;;
1715;SDS011;855;48.824;9.220;2024-03-23T10:36:19;9.53;;;2.50;;
1715;SDS011;855;48.824;9.220;2024-03-23T10:38:49;8.80;;;3.17;;
1715;SDS011;855;48.824;9.220;2024-03-23T10:41:16;7.47;;;3.53;;
1715;SDS011;855;48.824;9.220;2024-03-23T10:43:43;7.37;;;2.00;;
1715;SDS011;855;48.824;9.220;2024-03-23T10:46:11;4.40;;;1.60;;
1715;SDS011;855;48.824;9.220;2024-03-23T10:48:38;10.27;;;2.33;;
1715;SDS011;855;48.824;9.220;2024-03-23T10:51:04;10.33;;;2.20;;
1715;SDS011;855;48.824;9.220;2024-03-23T10:53:33;18.30;;;2.73;;
1715;SDS011;855;48.824;9.220;2024-03-23T10:56:01;8.03;;;2.57;;
1715;SDS011;855;48.824;9.220;2024-03-23T10:58:30;7.40;;;3.10;;
1715;SDS011;855;48.824;9.220;2024-03-23T11:00:58;17.10;;;3.73;;
1715;SDS011;855;48.824;9.220;2024-03-23T11:03:31;6.77;;;3.40;;
1715;SDS011;855;48.824;9.220;2024-03-23T11:06:02;5.50;;;2.60;;
1715;SDS011;855;48.824;9.220;2024-03-23T11:08:29;7.60;;;3.17;;
1715;SDS011;855;48.824;9.220;2024-03-23T11:13:51;11.67;;;3.07;;
1715;SDS011;855;48.824;9.220;2024-03-23T11:16:21;8.13;;;3.03;;
1715;SDS011;855;48.824;9.220;2024-03-23T11:18:48;6.87;;;2.50;;
1715;SDS011;855;48.824;9.220;2024-03-23T11:24:18;7.33;;;3.03;;
1715;SDS011;855;48.824;9.220;2024-03-23T11:26:45;4.17;;;2.57;;
1715;SDS011;855;48.824;9.220;2024-03-23T11:29:13;4.53;;;2.53;;
1715;SDS011;855;48.824;9.220;2024-03-23T11:31:45;3.70;;;2.30;;
1715;SDS011;855;48.824;9.220;2024-03-23T11:34:11;6.97;;;2.17;;
1715;SDS011;855;48.824;9.220;2024-03-23T11:36:38;6.00;;;2.30;;
1715;SDS011;855;48.824;9.220;2024-03-23T11:39:11;9.20;;;2.87;;
1715;SDS011;855;48.824;9.220;2024-03-23T11:41:47;7.37;;;2.37;;
1715;SDS011;855;48.824;9.220;2024-03-23T11:44:21;10.20;;;2.10;;
1715;SDS011;855;48.824;9.220;2024-03-23T11:46:48;3.47;;;1.90;;
1715;SDS011;855;48.824;9.220;2024-03-23T11:49:21;4.13;;;2.17;;
1715;SDS011;855;48.824;9.220;2024-03-23T11:51:48;2.43;;;1.90;;
1715;SDS011;855;48.824;9.220;2024-03-23T11:54:15;4.90;;;1.80;;
1715;SDS011;855;48.824;9.220;2024-03-23T11:56:53;2.20;;;1.57;;
1715;SDS011;855;48.824;9.220;2024-03-23T11:59:31;6.10;;;2.40;;
1715;SDS011;855;48.824;9.220;2024-03-23T12:01:58;3.40;;;1.63;;
1715;SDS011;855;48.824;9.220;2024-03-23T12:04:25;2.57;;;1.30;;
1715;SDS011;855;48.824;9.220;2024-03-23T12:09:39;4.60;;;1.60;;
1715;SDS011;855;48.824;9.220;2024-03-23T12:12:08;2.60;;;1.50;;
1715;SDS011;855;48.824;9.220;2024-03-23T12:14:36;2.70;;;1.30;;
1715;SDS011;855;48.824;9.220;2024-03-23T12:17:11;6.73;;;1.77;;
1715;SDS011;855;48.824;9.220;2024-03-23T12:19:38;1.63;;;1.17;;
1715;SDS011;855;48.824;9.220;2024-03-23T12:22:06;3.23;;;1.20;;
1715;SDS011;855;48.824;9.220;2024-03-23T12:24:33;3.33;;;1.33;;
1715;SDS011;855;48.824;9.220;2024-03-23T12:27:03;5.80;;;1.60;;
1715;SDS011;855;48.824;9.220;2024-03-23T12:29:30;3.60;;;1.50;;
1715;SDS011;855;48.824;9.220;2024-03-23T12:32:00;7.40;;;1.83;;
1715;SDS011;855;48.824;9.220;2024-03-23T12:34:27;3.10;;;1.40;;
1715;SDS011;855;48.824;9.220;2024-03-23T12:36:55;10.43;;;2.10;;
1715;SDS011;855;48.824;9.220;2024-03-23T12:39:21;2.77;;;1.33;;
1715;SDS011;855;48.824;9.220;2024-03-23T12:41:48;6.90;;;1.63;;
1715;SDS011;855;48.824;9.220;2024-03-23T12:44:15;7.33;;;2.07;;
1715;SDS011;855;48.824;9.220;2024-03-23T12:46:42;7.93;;;2.17;;
1715;SDS011;855;48.824;9.220;2024-03-23T12:49:09;4.27;;;1.83;;
1715;SDS011;855;48.824;9.220;2024-03-23T12:51:36;5.67;;;3.43;;
1715;SDS011;855;48.824;9.220;2024-03-23T12:54:02;5.10;;;2.07;;
1715;SDS011;855;48.824;9.220;2024-03-23T12:56:29;7.43;;;1.87;;
1715;SDS011;855;48.824;9.220;2024-03-23T12:58:55;8.03;;;1.60;;
1715;SDS011;855;48.824;9.220;2024-03-23T13:01:23;8.77;;;2.40;;
1715;SDS011;855;48.824;9.220;2024-03-23T13:03:49;5.37;;;2.10;;
1715;SDS011;855;48.824;9.220;2024-03-23T13:06:18;4.73;;;1.53;;
1715;SDS011;855;48.824;9.220;2024-03-23T13:08:44;5.83;;;2.00;;
1715;SDS011;855;48.824;9.220;2024-03-23T13:11:11;7.87;;;1.90;;
1715;SDS011;855;48.824;9.220;2024-03-23T13:13:38;5.80;;;1.57;;
1715;SDS011;855;48.824;9.220;2024-03-23T13:16:05;18.37;;;1.80;;
1715;SDS011;855;48.824;9.220;2024-03-23T13:18:31;5.53;;;2.20;;
1715;SDS011;855;48.824;9.220;2024-03-23T13:20:58;8.23;;;1.43;;
1715;SDS011;855;48.824;9.220;2024-03-23T13:23:26;8.23;;;2.47;;
1715;SDS011;855;48.824;9.220;2024-03-23T13:25:53;8.03;;;1.40;;
1715;SDS011;855;48.824;9.220;2024-03-23T13:28:20;7.17;;;2.47;;
1715;SDS011;855;48.824;9.220;2024-03-23T13:30:50;3.53;;;1.97;;
1715;SDS011;855;48.824;9.220;2024-03-23T13:33:17;5.80;;;1.30;;
1715;SDS011;855;48.824;9.220;2024-03-23T13:35:50;3.50;;;1.20;;
1715;SDS011;855;48.824;9.220;2024-03-23T13:38:16;10.93;;;2.10;;
1715;SDS011;855;48.824;9.220;2024-03-23T13:40:51;7.43;;;1.47;;
1715;SDS011;855;48.824;9.220;2024-03-23T13:43:18;7.80;;;1.67;;
1715;SDS011;855;48.824;9.220;2024-03-23T13:45:45;7.57;;;1.87;;
1715;SDS011;855;48.824;9.220;2024-03-23T13:48:11;3.80;;;1.40;;
1715;SDS011;855;48.824;9.220;2024-03-23T13:50:38;2.33;;;1.30;;
1715;SDS011;855;48.824;9.220;2024-03-23T13:53:04;6.77;;;1.27;;
1715;SDS011;855;48.824;9.220;2024-03-23T13:55:33;9.23;;;1.60;;
1715;SDS011;855;48.824;9.220;2024-03-23T13:58:00;2.20;;;0.87;;
1715;SDS011;855;48.824;9.220;2024-03-23T14:00:27;1.67;;;1.23;;
1715;SDS011;855;48.824;9.220;2024-03-23T14:02:53;1.20;;;0.80;;
1715;SDS011;855;48.824;9.220;2024-03-23T14:05:20;13.63;;;1.40;;
1715;SDS011;855;48.824;9.220;2024-03-23T14:07:50;3.87;;;1.20;;
1715;SDS011;855;48.824;9.220;2024-03-23T14:10:17;4.53;;;1.47;;
1715;SDS011;855;48.824;9.220;2024-03-23T14:12:43;5.10;;;1.53;;
1715;SDS011;855;48.824;9.220;2024-03-23T14:15:12;0.77;;;0.77;;
1715;SDS011;855;48.824;9.220;2024-03-23T14:17:37;2.80;;;1.27;;
1715;SDS011;855;48.824;9.220;2024-03-23T14:20:05;3.03;;;2.17;;
1715;SDS011;855;48.824;9.220;2024-03-23T14:22:34;4.70;;;1.40;;
1715;SDS011;855;48.824;9.220;2024-03-23T14:25:01;1.70;;;1.13;;
1715;SDS011;855;48.824;9.220;2024-03-23T14:27:27;1.20;;;0.90;;
1715;SDS011;855;48.824;9.220;2024-03-23T14:29:53;3.27;;;1.20;;
1715;SDS011;855;48.824;9.220;2024-03-23T14:32:23;2.97;;;1.47;;
1715;SDS011;855;48.824;9.220;2024-03-23T14:34:50;3.50;;;1.10;;
1715;SDS011;855;48.824;9.220;2024-03-23T14:37:17;3.90;;;1.00;;
1715;SDS011;855;48.824;9.220;2024-03-23T14:39:45;1.77;;;0.90;;
1715;SDS011;855;48.824;9.220;2024-03-23T14:42:11;1.77;;;0.90;;
1715;SDS011;855;48.824;9.220;2024-03-23T14:44:38;1.63;;;1.43;;
1715;SDS011;855;48.824;9.220;2024-03-23T14:47:04;1.07;;;1.00;;
1715;SDS011;855;48.824;9.220;2024-03-23T14:49:32;3.37;;;1.50;;
1715;SDS011;855;48.824;9.220;2024-03-23T14:51:58;2.20;;;1.57;;
1715;SDS011;855;48.824;9.220;2024-03-23T14:54:25;11.57;;;2.40;;
1715;SDS011;855;48.824;9.220;2024-03-23T14:56:51;6.90;;;2.00;;
1715;SDS011;855;48.824;9.220;2024-03-23T14:59:19;6.63;;;1.47;;
1715;SDS011;855;48.824;9.220;2024-03-23T15:01:45;1.80;;;1.23;;
1715;SDS011;855;48.824;9.220;2024-03-23T15:04:12;3.23;;;1.63;;
1715;SDS011;855;48.824;9.220;2024-03-23T15:06:39;6.63;;;1.97;;
1715;SDS011;855;48.824;9.220;2024-03-23T15:09:07;3.43;;;1.80;;
1715;SDS011;855;48.824;9.220;2024-03-23T15:11:36;3.67;;;1.57;;
1715;SDS011;855;48.824;9.220;2024-03-23T15:14:03;3.37;;;1.47;;
1715;SDS011;855;48.824;9.220;2024-03-23T15:16:28;1.53;;;1.23;;
1715;SDS011;855;48.824;9.220;2024-03-23T15:18:55;5.37;;;1.90;;
1715;SDS011;855;48.824;9.220;2024-03-23T15:21:21;2.20;;;1.33;;
1715;SDS011;855;48.824;9.220;2024-03-23T15:23:49;5.73;;;1.27;;
1715;SDS011;855;48.824;9.220;2024-03-23T15:26:15;2.50;;;0.90;;
1715;SDS011;855;48.824;9.220;2024-03-23T15:28:42;1.40;;;0.83;;
1715;SDS011;855;48.824;9.220;2024-03-23T15:31:28;3.00;;;1.03;;
1715;SDS011;855;48.824;9.220;2024-03-23T15:33:56;3.00;;;1.17;;
1715;SDS011;855;48.824;9.220;2024-03-23T15:36:22;6.93;;;1.67;;
1715;SDS011;855;48.824;9.220;2024-03-23T15:38:50;2.20;;;1.10;;
1715;SDS011;855;48.824;9.220;2024-03-23T15:41:15;3.53;;;1.43;;
1715;SDS011;855;48.824;9.220;2024-03-23T15:43:42;2.20;;;0.80;;
1715;SDS011;855;48.824;9.220;2024-03-23T15:46:08;1.13;;;0.80;;
1715;SDS011;855;48.824;9.220;2024-03-23T15:48:36;1.47;;;1.37;;
1715;SDS011;855;48.824;9.220;2024-03-23T15:51:03;3.13;;;1.20;;
1715;SDS011;855;48.824;9.220;2024-03-23T15:53:30;2.30;;;0.93;;
1715;SDS011;855;48.824;9.220;2024-03-23T15:55:58;1.03;;;0.93;;
1715;SDS011;855;48.824;9.220;2024-03-23T15:58:27;6.23;;;1.47;;
1715;SDS011;855;48.824;9.220;2024-03-23T16:00:56;2.20;;;1.20;;
1715;SDS011;855;48.824;9.220;2024-03-23T16:03:24;6.70;;;1.20;;
1715;SDS011;855;48.824;9.220;2024-03-23T16:05:51;1.90;;;1.57;;
1715;SDS011;855;48.824;9.220;2024-03-23T16:08:18;5.97;;;1.20;;
1715;SDS011;855;48.824;9.220;2024-03-23T16:10:44;8.50;;;1.60;;
1715;SDS011;855;48.824;9.220;2024-03-23T16:13:13;3.60;;;1.77;;
1715;SDS011;855;48.824;9.220;2024-03-23T16:15:39;3.17;;;0.60;;
1715;SDS011;855;48.824;9.220;2024-03-23T16:18:05;1.17;;;0.70;;
1715;SDS011;855;48.824;9.220;2024-03-23T16:20:31;0.80;;;0.70;;
1715;SDS011;855;48.824;9.220;2024-03-23T16:22:58;2.47;;;0.80;;
1715;SDS011;855;48.824;9.220;2024-03-23T16:25:24;2.30;;;1.50;;
1715;SDS011;855;48.824;9.220;2024-03-23T16:27:51;4.53;;;1.50;;